Time;durP1;ratioP1;P1;durP2;ratioP2;P2;SDS_P1;SDS_P2;PMS_P1;PMS_P2;Temp;Humidity;BMP_temperature;BMP_pressure;BME280_temperature;BME280_humidity;BME280_pressure;Samples;Min_cycle;Max_cycle;Signal;HPM_P1;HPM_P2
2023/09/06 00:01:54;;;;;;;;;34.25;24.25;;;;;25.84;49.13;101073.88;5065629;28;45607;-70
2023/09/06 00:04:19;;;;;;;;;29.25;24.75;;;;;25.81;48.99;101068.75;5075056;28;59790;-70
2023/09/06 00:06:45;;;;;;;;;26.00;21.50;;;;;25.80;48.99;101072.44;5074390;28;62077;-69
2023/09/06 00:09:10;;;;;;;;;19.75;18.00;;;;;25.77;49.04;101070.84;5077069;28;57948;-70
2023/09/06 00:11:36;;;;;;;;;20.50;17.25;;;;;25.75;49.05;101066.63;5066716;28;45381;-71
2023/09/06 00:14:03;;;;;;;;;20.50;16.50;;;;;25.76;49.46;101062.94;5077171;28;71672;-69
2023/09/06 00:16:28;;;;;;;;;21.75;18.75;;;;;25.75;48.96;101077.34;5073438;28;45355;-70
2023/09/06 00:18:53;;;;;;;;;22.00;19.00;;;;;25.74;49.08;101070.28;5070720;28;48922;-69
2023/09/06 00:21:19;;;;;;;;;26.50;19.25;;;;;25.72;49.15;101062.34;5068349;28;45279;-70
2023/09/06 00:23:44;;;;;;;;;19.75;18.75;;;;;25.71;49.24;101063.34;5074885;28;45440;-70
2023/09/06 00:26:10;;;;;;;;;26.75;21.00;;;;;25.70;49.35;101064.31;5077417;28;73487;-71
2023/09/06 00:28:35;;;;;;;;;22.25;18.50;;;;;25.70;49.01;101060.81;5071416;28;60368;-72
2023/09/06 00:31:00;;;;;;;;;23.00;19.50;;;;;25.68;48.97;101060.94;5070513;28;73010;-71
2023/09/06 00:33:34;;;;;;;;;23.75;19.75;;;;;25.65;49.28;101055.00;5073333;28;45686;-71
2023/09/06 00:36:02;;;;;;;;;21.25;17.00;;;;;25.63;49.00;101056.97;5075023;27;45448;-71
2023/09/06 00:38:28;;;;;;;;;24.00;19.50;;;;;25.62;49.52;101057.91;5076131;28;45389;-71
2023/09/06 00:40:54;;;;;;;;;25.50;17.25;;;;;25.63;49.45;101065.00;5064630;28;45399;-71
2023/09/06 00:43:19;;;;;;;;;21.75;19.75;;;;;25.60;49.50;101058.03;5076690;28;45266;-71
2023/09/06 00:45:47;;;;;;;;;24.25;20.25;;;;;25.60;49.28;101059.88;5064490;28;60593;-70
2023/09/06 00:48:17;;;;;;;;;29.25;21.50;;;;;25.59;49.67;101056.38;5070202;28;45406;-70
2023/09/06 00:50:43;;;;;;;;;23.75;19.00;;;;;25.56;49.72;101054.78;5066000;28;45360;-71
2023/09/06 00:53:09;;;;;;;;;26.75;20.25;;;;;25.57;49.57;101063.69;5064607;27;45430;-70
2023/09/06 00:55:37;;;;;;;;;23.50;21.50;;;;;25.53;50.00;101056.88;5066384;28;45356;-70
2023/09/06 00:58:03;;;;;;;;;27.25;20.00;;;;;25.53;50.08;101064.91;5068112;28;45395;-70
2023/09/06 01:00:29;;;;;;;;;24.50;18.25;;;;;25.48;49.86;101059.97;5062938;28;45459;-70
2023/09/06 01:02:55;;;;;;;;;26.25;20.00;;;;;25.47;49.72;101065.44;5074031;28;48030;-71
2023/09/06 01:05:22;;;;;;;;;24.50;20.00;;;;;25.45;49.87;101062.06;5073611;28;45268;-71
2023/09/06 01:07:51;;;;;;;;;21.00;20.25;;;;;25.43;50.17;101056.81;5073764;28;45556;-71
2023/09/06 01:10:17;;;;;;;;;24.50;20.00;;;;;25.40;49.93;101059.75;5067299;28;45252;-71
2023/09/06 01:12:42;;;;;;;;;24.50;18.00;;;;;25.37;50.41;101060.88;5072050;28;45511;-70
2023/09/06 01:15:10;;;;;;;;;21.50;17.50;;;;;25.36;50.50;101063.69;5069245;28;45289;-71
2023/09/06 01:17:37;;;;;;;;;18.00;14.75;;;;;25.32;50.63;101049.69;5069245;28;45437;-73
2023/09/06 01:20:38;;;;;;;;;18.25;18.00;;;;;25.32;50.82;101054.19;5060175;28;45650;-71
2023/09/06 01:23:39;;;;;;;;;23.50;19.00;;;;;25.30;50.84;101056.16;5075525;28;47165;-70
2023/09/06 01:26:05;;;;;;;;;26.50;21.00;;;;;25.28;50.89;101044.72;5055569;27;45550;-71
2023/09/06 01:28:31;;;;;;;;;21.25;16.50;;;;;25.25;51.03;101047.66;5051555;28;45478;-70
2023/09/06 01:30:59;;;;;;;;;21.50;20.25;;;;;25.24;50.55;101052.13;5067615;27;45452;-70
2023/09/06 01:33:25;;;;;;;;;18.75;15.50;;;;;25.22;50.71;101056.78;5073691;28;45551;-70
2023/09/06 01:35:51;;;;;;;;;18.75;15.75;;;;;25.20;50.81;101053.38;5073543;28;45200;-72
2023/09/06 01:38:16;;;;;;;;;21.50;17.50;;;;;25.19;50.86;101059.69;5072123;27;45710;-72
2023/09/06 01:40:42;;;;;;;;;16.75;13.75;;;;;25.18;51.27;101058.03;5068485;28;46326;-70
2023/09/06 01:43:08;;;;;;;;;21.00;16.75;;;;;25.17;51.15;101058.97;5075104;28;45492;-70
2023/09/06 01:45:35;;;;;;;;;18.00;14.00;;;;;25.14;51.18;101060.09;5071493;28;45875;-69
2023/09/06 01:48:02;;;;;;;;;17.00;16.00;;;;;25.12;50.98;101061.19;5072267;28;45382;-70
2023/09/06 01:50:28;;;;;;;;;15.75;13.50;;;;;25.08;51.39;101062.44;5069687;28;46217;-71
2023/09/06 01:52:55;;;;;;;;;18.75;16.50;;;;;25.06;51.85;101059.03;5073496;28;63642;-70
2023/09/06 01:55:21;;;;;;;;;17.75;15.00;;;;;25.04;51.54;101061.84;5073009;27;46338;-69
2023/09/06 01:57:46;;;;;;;;;17.50;14.00;;;;;25.00;51.76;101052.34;5076027;28;45546;-69
2023/09/06 02:00:28;;;;;;;;;16.00;12.00;;;;;24.96;51.32;101056.25;5072616;28;45477;-69
2023/09/06 02:03:00;;;;;;;;;15.25;14.00;;;;;24.94;51.38;101058.22;5071961;28;46044;-70
2023/09/06 02:05:25;;;;;;;;;15.50;13.75;;;;;24.89;51.92;101061.28;5075971;27;45434;-70
2023/09/06 02:07:51;;;;;;;;;16.00;13.75;;;;;24.86;52.30;101060.66;5073334;28;61584;-70
2023/09/06 02:10:17;;;;;;;;;15.25;14.25;;;;;24.82;52.26;101068.97;5059909;27;45940;-70
2023/09/06 02:12:42;;;;;;;;;20.50;16.50;;;;;24.80;52.44;101062.03;5071415;27;46035;-71
2023/09/06 02:15:08;;;;;;;;;9.50;8.00;;;;;24.80;52.37;101064.72;5076671;28;45655;-70
2023/09/06 02:17:37;;;;;;;;;20.00;14.00;;;;;24.77;52.40;101068.50;5076831;28;45737;-70
2023/09/06 02:20:20;;;;;;;;;17.75;13.50;;;;;24.75;52.64;101066.91;5073894;27;45571;-71
2023/09/06 02:22:56;;;;;;;;;17.75;14.50;;;;;24.73;52.46;101068.88;5073504;27;46135;-71
2023/09/06 02:25:29;;;;;;;;;17.75;14.75;;;;;24.69;52.72;101068.25;5071696;28;45441;-70
2023/09/06 02:27:56;;;;;;;;;17.25;13.25;;;;;24.63;52.43;101063.44;5074000;27;45358;-71
2023/09/06 02:30:21;;;;;;;;;17.50;13.50;;;;;24.58;52.98;101063.78;5074031;28;45461;-70
2023/09/06 02:32:48;;;;;;;;;16.75;14.00;;;;;24.58;53.03;101061.13;5068091;28;45933;-70
2023/09/06 02:35:14;;;;;;;;;19.00;13.75;;;;;24.55;53.33;101066.69;5065144;28;45292;-71
2023/09/06 02:37:39;;;;;;;;;17.00;14.75;;;;;24.53;53.10;101062.44;5078223;28;45538;-70
2023/09/06 02:40:12;;;;;;;;;14.75;14.00;;;;;24.52;53.43;101063.41;5073439;28;69634;-69
2023/09/06 02:42:38;;;;;;;;;18.50;13.25;;;;;24.49;53.22;101068.97;5072783;28;46624;-70
2023/09/06 02:45:05;;;;;;;;;18.25;13.00;;;;;24.47;53.43;101060.25;5080258;28;45536;-69
2023/09/06 02:47:34;;;;;;;;;17.25;12.50;;;;;24.44;53.85;101056.00;5078453;28;45517;-69
2023/09/06 02:49:59;;;;;;;;;16.00;12.00;;;;;24.43;53.63;101063.19;5068582;28;45486;-71
2023/09/06 02:52:29;;;;;;;;;16.75;15.00;;;;;24.41;53.79;101065.09;5074657;28;46687;-71
2023/09/06 02:54:57;;;;;;;;;17.25;16.25;;;;;24.38;53.97;101060.03;5072864;28;45789;-71
2023/09/06 02:57:24;;;;;;;;;12.00;12.00;;;;;24.38;54.10;101070.72;5066571;27;45276;-71
2023/09/06 02:59:51;;;;;;;;;14.75;12.75;;;;;24.34;54.14;101063.91;5070876;28;45442;-70
2023/09/06 03:02:22;;;;;;;;;14.00;11.25;;;;;24.32;54.24;101067.69;5070395;28;46485;-70
2023/09/06 03:04:49;;;;;;;;;15.00;14.25;;;;;24.27;54.38;101057.34;5079401;28;45372;-70
2023/09/06 03:07:15;;;;;;;;;12.50;11.75;;;;;24.28;54.09;101066.22;5072472;28;45660;-70
2023/09/06 03:09:40;;;;;;;;;15.00;11.50;;;;;24.25;54.23;101070.81;5073905;28;45581;-70
2023/09/06 03:12:12;;;;;;;;;17.00;13.00;;;;;24.21;54.70;101063.19;5068289;28;59476;-70
2023/09/06 03:14:44;;;;;;;;;15.50;14.00;;;;;24.20;54.69;101061.47;5063345;28;45711;-70
2023/09/06 03:17:18;;;;;;;;;15.00;12.75;;;;;24.19;54.57;101062.47;5064814;28;45371;-70
2023/09/06 03:19:45;;;;;;;;;14.75;10.25;;;;;24.15;54.80;101064.53;5071256;27;45368;-70
2023/09/06 03:22:12;;;;;;;;;11.75;8.25;;;;;24.13;54.78;101058.44;5067090;27;45648;-70
2023/09/06 03:24:41;;;;;;;;;17.25;13.00;;;;;24.14;55.19;101064.66;5073770;27;45382;-70
2023/09/06 03:27:15;;;;;;;;;13.50;11.25;;;;;24.12;54.98;101064.78;5071428;27;46361;-70
2023/09/06 03:29:41;;;;;;;;;17.00;12.75;;;;;24.12;55.26;101061.25;5075819;27;45464;-70
2023/09/06 03:32:07;;;;;;;;;15.00;13.00;;;;;24.09;55.20;101054.31;5067157;27;46498;-70
2023/09/06 03:34:33;;;;;;;;;16.25;14.25;;;;;24.10;55.04;101057.81;5077452;27;45773;-70
2023/09/06 03:36:59;;;;;;;;;14.50;12.00;;;;;24.07;54.97;101054.44;5079504;27;45410;-71
2023/09/06 03:39:28;;;;;;;;;18.50;13.25;;;;;24.07;54.93;101053.59;5074417;28;52204;-70
2023/09/06 03:41:55;;;;;;;;;15.25;14.00;;;;;24.03;55.57;101057.47;5074289;27;47122;-70
2023/09/06 03:44:21;;;;;;;;;16.75;13.75;;;;;24.02;55.56;101053.94;5078366;28;45672;-71
2023/09/06 03:46:46;;;;;;;;;14.25;13.00;;;;;23.99;55.57;101056.88;5073670;27;45499;-70
2023/09/06 03:49:13;;;;;;;;;15.25;13.00;;;;;24.00;55.51;101060.38;5069156;27;45453;-70
2023/09/06 03:51:38;;;;;;;;;12.00;11.50;;;;;23.97;55.40;101060.63;5072508;27;45427;-70
2023/09/06 03:54:06;;;;;;;;;1.50;0.50;;;;;23.98;55.91;101062.34;5070309;27;72993;-70
2023/09/06 03:56:32;;;;;;;;;16.75;12.25;;;;;23.96;55.80;101061.63;5052977;28;45336;-70
2023/09/06 03:59:00;;;;;;;;;16.25;13.00;;;;;23.95;56.10;101057.22;5084418;27;74245;-71
2023/09/06 04:01:27;;;;;;;;;19.25;14.50;;;;;23.92;56.13;101063.69;5071613;28;45300;-70
2023/09/06 04:03:52;;;;;;;;;16.50;12.00;;;;;23.92;55.91;101066.34;5079191;28;45765;-71
2023/09/06 04:06:19;;;;;;;;;14.00;11.25;;;;;23.92;56.21;101068.16;5076960;28;45320;-71
2023/09/06 04:08:45;;;;;;;;;17.75;13.75;;;;;23.90;56.16;101072.75;5072391;28;45407;-70
2023/09/06 04:11:10;;;;;;;;;12.25;11.25;;;;;23.89;56.23;101069.25;5072943;28;45666;-70
2023/09/06 04:13:35;;;;;;;;;13.25;11.00;;;;;23.85;56.24;101068.63;5077813;28;65286;-70
2023/09/06 04:16:01;;;;;;;;;16.00;10.50;;;;;23.87;56.42;101082.72;5075674;28;62897;-67
2023/09/06 04:18:27;;;;;;;;;19.00;13.75;;;;;23.86;55.91;101080.16;5067612;28;45611;-67
2023/09/06 04:20:52;;;;;;;;;13.00;12.00;;;;;23.82;56.35;101076.88;5067048;28;47983;-68
2023/09/06 04:23:18;;;;;;;;;20.00;13.75;;;;;23.81;56.15;101077.00;5073785;28;54775;-67
2023/09/06 04:25:46;;;;;;;;;16.00;11.50;;;;;23.78;56.61;101071.84;5066063;28;45252;-67
2023/09/06 04:28:13;;;;;;;;;16.25;15.00;;;;;23.70;56.90;101073.31;5073872;28;45492;-67
2023/09/06 04:30:41;;;;;;;;;15.00;14.50;;;;;23.67;56.70;101070.00;5071066;28;45446;-67
2023/09/06 04:33:14;;;;;;;;;15.25;14.75;;;;;23.60;57.09;101077.69;5073031;28;45284;-67
2023/09/06 04:35:43;;;;;;;;;16.25;11.25;;;;;23.55;57.66;101074.50;5076415;28;45577;-67
2023/09/06 04:38:11;;;;;;;;;16.00;13.75;;;;;23.50;57.54;101080.19;5072370;28;45547;-67
2023/09/06 04:40:37;;;;;;;;;17.50;15.25;;;;;23.48;57.69;101070.59;5073338;28;47297;-68
2023/09/06 04:43:07;;;;;;;;;17.75;15.75;;;;;23.44;57.71;101071.78;5077641;28;45471;-68
2023/09/06 04:45:32;;;;;;;;;20.50;14.00;;;;;23.41;58.26;101072.00;5073338;28;45406;-68
2023/09/06 04:47:58;;;;;;;;;14.00;12.50;;;;;23.40;57.81;101079.16;5074742;28;45363;-68
2023/09/06 04:50:24;;;;;;;;;14.75;12.50;;;;;23.36;58.02;101074.19;5048953;28;47769;-68
2023/09/06 04:52:52;;;;;;;;;15.75;12.75;;;;;23.34;58.27;101078.78;5069021;28;45371;-67
2023/09/06 04:55:19;;;;;;;;;12.50;12.50;;;;;23.30;58.52;101079.03;5060113;27;45328;-68
2023/09/06 04:57:45;;;;;;;;;17.00;12.50;;;;;23.28;58.83;101085.44;5076720;28;45557;-66
2023/09/06 05:00:18;;;;;;;;;17.00;13.00;;;;;23.24;58.79;101084.81;5069004;28;47300;-67
2023/09/06 05:02:45;;;;;;;;;16.00;14.50;;;;;23.21;59.08;101087.72;5074516;28;45862;-68
2023/09/06 05:05:11;;;;;;;;;20.50;14.75;;;;;23.18;59.00;101082.63;5074747;28;45487;-67
2023/09/06 05:07:36;;;;;;;;;19.50;12.75;;;;;23.20;58.83;101079.84;5061763;28;45468;-66
2023/09/06 05:10:03;;;;;;;;;13.75;12.50;;;;;23.16;59.07;101079.22;5066902;28;52633;-67
2023/09/06 05:12:29;;;;;;;;;17.50;14.25;;;;;23.14;59.01;101083.78;5053439;28;45671;-67
2023/09/06 05:14:55;;;;;;;;;16.25;12.25;;;;;23.12;59.56;101086.59;5068797;28;45289;-67
2023/09/06 05:17:20;;;;;;;;;17.75;14.25;;;;;23.10;59.74;101080.50;5070304;28;45559;-68
2023/09/06 05:19:54;;;;;;;;;14.50;13.25;;;;;23.08;59.74;101087.78;5066781;28;74109;-68
2023/09/06 05:22:22;;;;;;;;;18.50;14.75;;;;;23.06;59.87;101084.38;5048465;28;45802;-68
2023/09/06 05:24:47;;;;;;;;;18.00;14.25;;;;;;;;5067772;28;45751;-68
2023/09/06 05:27:13;;;;;;;;;14.00;12.33;;;;;23.02;59.70;101090.88;5074961;28;45382;-69
2023/09/06 05:29:39;;;;;;;;;17.25;12.75;;;;;23.00;59.97;101079.47;5073507;28;45668;-70
2023/09/06 05:32:04;;;;;;;;;12.00;10.50;;;;;23.06;59.31;101088.88;5069434;28;45320;-71
2023/09/06 05:34:29;;;;;;;;;17.25;12.50;;;;;23.08;59.92;101085.13;5074122;27;47024;-68
2023/09/06 05:36:55;;;;;;;;;16.75;12.25;;;;;23.11;59.61;101086.72;5076251;28;46295;-69
2023/09/06 05:39:20;;;;;;;;;17.00;13.50;;;;;23.10;59.70;101101.03;5073120;28;45417;-67
2023/09/06 05:41:47;;;;;;;;;16.25;12.25;;;;;23.06;60.08;101095.06;5069303;28;52500;-69
2023/09/06 05:44:13;;;;;;;;;16.00;14.00;;;;;23.11;60.05;101097.41;5074114;28;45367;-67
2023/09/06 05:46:38;;;;;;;;;15.25;12.25;;;;;23.17;59.54;101099.59;5077318;28;45265;-68
2023/09/06 05:49:04;;;;;;;;;16.50;11.25;;;;;23.20;59.64;101088.69;5069427;28;66121;-68
2023/09/06 05:51:30;;;;;;;;;12.25;8.75;;;;;23.27;59.25;101097.94;5081108;27;45948;-68
2023/09/06 05:53:56;;;;;;;;;12.50;11.50;;;;;23.26;59.19;101101.56;5080702;27;45490;-71
2023/09/06 05:56:21;;;;;;;;;11.75;9.75;;;;;23.30;59.25;101099.53;5055388;28;45549;-70
2023/09/06 05:58:47;;;;;;;;;10.50;9.75;;;;;23.33;59.34;101098.47;5067712;28;45468;-69
2023/09/06 06:01:17;;;;;;;;;10.50;9.50;;;;;23.36;58.83;101098.25;5066513;28;45369;-69
2023/09/06 06:03:43;;;;;;;;;11.00;8.50;;;;;23.43;58.50;101104.81;5063706;28;45340;-72
2023/09/06 06:06:10;;;;;;;;;11.25;10.00;;;;;23.43;58.56;101104.81;5076806;28;45305;-70
2023/09/06 06:08:37;;;;;;;;;9.50;9.25;;;;;23.43;58.58;101107.50;5077116;28;45428;-70
2023/09/06 06:11:02;;;;;;;;;13.75;8.75;;;;;23.41;58.55;101104.94;5055173;28;45380;-72
2023/09/06 06:13:27;;;;;;;;;11.25;10.75;;;;;23.44;58.25;101104.69;5073900;27;45419;-74
2023/09/06 06:15:53;;;;;;;;;10.25;9.25;;;;;23.45;58.65;101103.72;5073859;27;45451;-68
2023/09/06 06:18:18;;;;;;;;;10.75;8.75;;;;;23.50;58.57;101112.25;5057901;28;46578;-69
2023/09/06 06:20:43;;;;;;;;;13.00;11.25;;;;;23.53;58.39;101118.31;5069823;28;45459;-70
2023/09/06 06:23:09;;;;;;;;;14.50;9.75;;;;;23.54;58.34;101115.53;5067426;27;45858;-69
2023/09/06 06:25:36;;;;;;;;;12.25;10.00;;;;;23.53;57.94;101115.63;5077673;27;45359;-69
2023/09/06 06:28:01;;;;;;;;;10.25;8.25;;;;;23.55;58.12;101121.72;5093108;27;47523;-72
2023/09/06 06:30:26;;;;;;;;;14.50;8.25;;;;;23.55;58.25;101119.91;5073361;28;45668;-73
2023/09/06 06:32:52;;;;;;;;;10.00;8.25;;;;;23.55;58.39;101114.56;5079625;28;59689;-72
2023/09/06 06:35:18;;;;;;;;;11.50;9.00;;;;;23.62;58.16;101122.94;5078660;28;62384;-73
2023/09/06 06:37:43;;;;;;;;;10.25;9.75;;;;;23.64;58.15;101124.56;5079545;28;47228;-72
2023/09/06 06:40:09;;;;;;;;;8.25;8.25;;;;;23.67;57.88;101129.69;5071983;28;45248;-73
2023/09/06 06:42:35;;;;;;;;;12.75;10.00;;;;;23.68;57.81;101127.84;5061303;28;45265;-73
2023/09/06 06:45:01;;;;;;;;;15.25;12.00;;;;;23.72;57.52;101131.13;5075377;27;45431;-73
2023/09/06 06:47:26;;;;;;;;;9.50;7.75;;;;;23.74;58.20;101123.84;5057238;28;47796;-73
2023/09/06 06:49:52;;;;;;;;;12.50;10.00;;;;;23.80;57.91;101128.75;5070651;28;49019;-73
2023/09/06 06:52:21;;;;;;;;;11.00;9.50;;;;;23.81;57.54;101133.97;5075251;27;45354;-72
2023/09/06 06:54:46;;;;;;;;;12.25;11.00;;;;;23.84;57.82;101128.41;5069289;28;45535;-71
2023/09/06 06:57:12;;;;;;;;;12.25;9.50;;;;;23.88;57.49;101127.19;5054474;28;45689;-72
2023/09/06 06:59:38;;;;;;;;;12.75;11.75;;;;;23.97;57.33;101136.31;5055268;28;45327;-75
2023/09/06 07:02:03;;;;;;;;;12.50;10.50;;;;;24.01;57.23;101134.25;5049979;28;45441;-73
2023/09/06 07:04:29;;;;;;;;;13.00;10.50;;;;;24.07;57.22;101136.47;5074809;28;45205;-72
2023/09/06 07:06:54;;;;;;;;;13.00;12.00;;;;;24.09;57.35;101137.19;5075923;28;69323;-80
2023/09/06 07:09:19;;;;;;;;;10.50;8.00;;;;;24.16;56.93;101140.25;5074276;27;57154;-70
2023/09/06 07:11:44;;;;;;;;;15.00;14.00;;;;;24.21;56.76;101138.06;5075597;27;66145;-68
2023/09/06 07:14:10;;;;;;;;;12.25;11.00;;;;;24.25;56.58;101142.19;5082261;27;45280;-76
2023/09/06 07:16:35;;;;;;;;;11.25;10.50;;;;;24.31;56.58;101140.88;5073651;27;74518;-75
2023/09/06 07:19:01;;;;;;;;;11.50;9.50;;;;;24.37;56.30;101146.59;5081249;27;56922;-68
2023/09/06 07:21:28;;;;;;;;;15.25;10.50;;;;;24.40;56.00;101143.69;5073487;27;45512;-72
2023/09/06 07:23:53;;;;;;;;;11.00;11.00;;;;;24.42;55.90;101144.41;5077507;27;45728;-72
2023/09/06 07:26:19;;;;;;;;;15.75;10.25;;;;;24.43;56.09;101143.44;5066178;28;46742;-75
2023/09/06 07:28:46;;;;;;;;;11.75;10.50;;;;;24.52;56.07;101149.84;5077776;28;45425;-75
2023/09/06 07:31:12;;;;;;;;;11.25;9.75;;;;;24.55;55.74;101151.50;5069546;28;45391;-77
2023/09/06 07:33:38;;;;;;;;;13.50;10.00;;;;;24.58;55.82;101145.91;5076321;28;45245;-75
2023/09/06 07:36:04;;;;;;;;;10.75;8.00;;;;;24.62;55.58;101144.66;5078920;28;45235;-75
2023/09/06 07:38:30;;;;;;;;;11.75;11.25;;;;;24.70;55.50;101154.75;5078543;28;45302;-73
2023/09/06 07:40:58;;;;;;;;;13.50;11.50;;;;;24.74;55.21;101156.22;5074270;28;45287;-74
2023/09/06 07:43:25;;;;;;;;;15.50;11.25;;;;;24.76;55.33;101151.59;5076805;28;45418;-74
2023/09/06 07:45:50;;;;;;;;;12.00;9.50;;;;;24.79;55.05;101148.69;5066062;28;45984;-76
2023/09/06 07:48:16;;;;;;;;;12.00;10.75;;;;;24.81;55.29;101152.09;5064902;28;46399;-75
2023/09/06 07:50:41;;;;;;;;;13.75;11.50;;;;;24.82;55.33;101148.41;5065021;28;63740;-74
2023/09/06 07:53:09;;;;;;;;;14.75;12.25;;;;;24.84;55.06;101159.84;5066522;27;73163;-74
2023/09/06 07:55:34;;;;;;;;;11.25;10.25;;;;;24.87;55.09;101158.75;5072381;28;46113;-75
2023/09/06 07:58:00;;;;;;;;;11.75;10.50;;;;;24.89;54.77;101163.00;5074572;28;59262;-75
2023/09/06 08:00:26;;;;;;;;;11.00;11.00;;;;;24.90;54.82;101159.38;5074922;28;45315;-72
2023/09/06 08:02:54;;;;;;;;;12.50;10.00;;;;;24.95;54.15;101165.19;5069130;27;45377;-74
2023/09/06 08:05:19;;;;;;;;;12.50;10.00;;;;;25.01;54.30;101171.88;5077244;28;45492;-78
2023/09/06 08:07:47;;;;;;;;;10.25;10.00;;;;;25.06;54.29;101174.19;5079061;28;45469;-77
2023/09/06 08:10:13;;;;;;;;;9.00;9.00;;;;;25.11;54.11;101177.34;5067383;28;45272;-78
2023/09/06 08:12:39;;;;;;;;;9.25;9.25;;;;;25.15;53.88;101163.56;5071378;27;45420;-76
2023/09/06 08:15:05;;;;;;;;;12.75;8.75;;;;;25.21;53.95;101170.25;5072504;28;45419;-76
2023/09/06 08:17:30;;;;;;;;;12.50;10.75;;;;;25.24;54.00;101172.69;5062201;27;45642;-78
2023/09/06 08:19:55;;;;;;;;;11.00;10.00;;;;;25.29;53.33;101169.66;5076010;28;45288;-79
2023/09/06 08:22:21;;;;;;;;;14.50;11.75;;;;;25.35;53.19;101175.34;5076187;27;61172;-76
2023/09/06 08:24:46;;;;;;;;;21.00;12.75;;;;;25.39;53.13;101171.44;5075063;27;57090;-74
2023/09/06 08:27:12;;;;;;;;;13.00;9.00;;;;;25.46;53.37;101168.25;5076397;28;65667;-74
2023/09/06 08:29:37;;;;;;;;;16.25;10.75;;;;;25.53;52.85;101169.44;5072502;28;45426;-75
2023/09/06 08:32:03;;;;;;;;;9.50;9.00;;;;;25.58;53.15;101168.06;5075940;27;45331;-74
2023/09/06 08:34:28;;;;;;;;;12.75;9.50;;;;;25.64;52.72;101172.09;5070093;27;46182;-76
2023/09/06 08:36:56;;;;;;;;;14.50;9.00;;;;;25.69;52.63;101175.22;5074064;28;45420;-77
2023/09/06 08:39:21;;;;;;;;;12.50;9.00;;;;;25.72;52.43;101171.44;5077230;27;45277;-77
2023/09/06 08:41:48;;;;;;;;;13.00;9.00;;;;;25.80;52.43;101178.81;5052579;27;53111;-77
2023/09/06 08:44:18;;;;;;;;;9.25;7.00;;;;;25.83;52.34;101182.09;5075549;27;45526;-76
2023/09/06 08:46:45;;;;;;;;;12.00;11.00;;;;;25.83;51.81;101168.69;5058522;28;45738;-76
2023/09/06 08:49:11;;;;;;;;;9.50;9.00;;;;;25.89;52.05;101172.69;5071283;28;45329;-77
2023/09/06 08:51:37;;;;;;;;;14.00;9.25;;;;;26.00;51.42;101175.34;5059706;27;45493;-77
2023/09/06 08:54:08;;;;;;;;;10.25;7.00;;;;;26.07;51.80;101176.50;5076780;27;45382;-76
2023/09/06 08:56:34;;;;;;;;;11.75;8.50;;;;;26.12;51.65;101170.75;5073042;28;45460;-76
2023/09/06 08:59:00;;;;;;;;;7.50;7.00;;;;;26.18;51.33;101172.06;5073214;28;45446;-80
2023/09/06 09:01:26;;;;;;;;;10.25;7.50;;;;;26.25;51.04;101184.78;5079951;28;45406;-73
2023/09/06 09:03:51;;;;;;;;;9.75;8.00;;;;;26.34;50.76;101177.78;5069551;27;45712;-80
2023/09/06 09:06:17;;;;;;;;;8.75;6.25;;;;;26.36;51.05;101178.50;5077748;28;45441;-80
2023/09/06 09:08:42;;;;;;;;;4.75;4.00;;;;;26.43;50.10;101170.78;5077656;28;45419;-77
2023/09/06 09:11:09;;;;;;;;;7.00;6.50;;;;;26.52;50.72;101178.88;5071699;28;45332;-80
2023/09/06 09:13:35;;;;;;;;;12.25;9.00;;;;;26.57;49.88;101173.09;5093486;27;47581;-77
2023/09/06 09:16:05;;;;;;;;;9.50;9.25;;;;;26.71;50.44;101178.13;5083527;28;45311;-77
2023/09/06 09:18:31;;;;;;;;;7.50;6.50;;;;;26.79;49.73;101176.59;5079046;28;45361;-78
2023/09/06 09:20:57;;;;;;;;;7.00;7.00;;;;;26.83;49.35;101176.19;5079199;28;45386;-79
2023/09/06 09:23:22;;;;;;;;;9.50;9.00;;;;;26.88;49.56;101171.25;5080833;27;46289;-75
2023/09/06 09:25:49;;;;;;;;;11.25;8.75;;;;;26.96;49.45;101175.09;5074669;28;65649;-76
2023/09/06 09:28:15;;;;;;;;;7.75;7.50;;;;;27.03;49.65;101173.56;5073225;28;45230;-75
2023/09/06 09:30:40;;;;;;;;;16.75;12.75;;;;;27.13;48.84;101176.25;5058969;28;45430;-75
2023/09/06 09:33:06;;;;;;;;;8.25;7.00;;;;;27.21;48.64;101168.34;5074057;27;45534;-78
2023/09/06 09:35:32;;;;;;;;;10.75;8.75;;;;;27.30;49.07;101169.38;5077275;28;45224;-73
2023/09/06 09:37:59;;;;;;;;;7.00;6.00;;;;;27.38;48.19;101169.53;5083292;27;45422;-73
2023/09/06 09:40:34;;;;;;;;;10.00;7.50;;;;;27.46;48.82;101170.53;5080578;28;45565;-75
2023/09/06 09:43:07;;;;;;;;;12.00;8.25;;;;;27.51;48.41;101169.25;5080657;27;45655;-76
2023/09/06 09:45:41;;;;;;;;;12.00;8.00;;;;;27.61;48.06;101170.09;5070149;28;45475;-74
2023/09/06 09:48:07;;;;;;;;;16.25;14.25;;;;;27.68;48.34;101173.09;5075858;28;45464;-71
2023/09/06 09:50:35;;;;;;;;;8.00;6.00;;;;;27.76;47.69;101178.56;5079712;28;45588;-75
2023/09/06 09:53:03;;;;;;;;;8.00;8.00;;;;;27.83;47.81;101169.81;5081070;27;46774;-80
2023/09/06 09:55:32;;;;;;;;;5.75;5.00;;;;;27.90;47.70;101177.28;5082190;28;45394;-77
2023/09/06 09:58:05;;;;;;;;;11.00;6.00;;;;;27.96;47.54;101172.22;5079290;28;45384;-75
2023/09/06 10:00:32;;;;;;;;;5.25;4.00;;;;;28.05;47.16;101170.50;5072697;28;45950;-77
2023/09/06 10:02:58;;;;;;;;;4.50;4.50;;;;;28.14;46.74;101174.19;5071563;27;45687;-80
2023/09/06 10:05:27;;;;;;;;;8.00;6.00;;;;;28.13;46.60;101167.09;5070493;28;45632;-76
2023/09/06 10:07:56;;;;;;;;;13.00;9.00;;;;;28.22;46.44;101160.81;5073161;28;45485;-73
2023/09/06 10:10:24;;;;;;;;;14.25;10.50;;;;;28.29;46.28;101159.22;5068432;28;45536;-74
2023/09/06 10:12:51;;;;;;;;;8.75;7.25;;;;;28.39;46.33;101161.91;5074994;27;45359;-74
2023/09/06 10:15:23;;;;;;;;;9.00;7.25;;;;;28.45;46.06;101158.59;5079472;27;46108;-75
2023/09/06 10:17:50;;;;;;;;;8.25;6.75;;;;;28.50;46.17;101155.47;5087415;27;45441;-75
2023/09/06 10:20:22;;;;;;;;;8.50;6.25;;;;;28.56;45.81;101158.47;5062632;27;46626;-77
2023/09/06 10:22:54;;;;;;;;;7.75;7.75;;;;;28.64;45.77;101155.03;5072723;27;46357;-77
2023/09/06 10:25:20;;;;;;;;;8.50;6.50;;;;;28.71;46.05;101156.13;5075323;28;45744;-76
2023/09/06 10:27:46;;;;;;;;;7.75;7.00;;;;;28.78;45.80;101151.00;5079516;28;45972;-77
2023/09/06 10:30:17;;;;;;;;;7.00;7.00;;;;;28.86;45.18;101153.78;5077607;27;45527;-76
2023/09/06 10:32:46;;;;;;;;;11.75;8.25;;;;;28.92;45.19;101142.38;5081068;27;47776;-76
2023/09/06 10:35:25;;;;;;;;;10.00;8.00;;;;;29.02;45.19;101152.25;5082797;27;45216;-77
2023/09/06 10:38:01;;;;;;;;;8.25;6.75;;;;;29.07;44.74;101148.09;5078716;28;45316;-77
2023/09/06 10:40:51;;;;;;;;;7.00;5.75;;;;;29.13;44.71;101139.41;5070741;27;45326;-76
2023/09/06 10:43:24;;;;;;;;;11.00;5.75;;;;;29.19;44.70;101135.28;5078994;27;46047;-78
2023/09/06 10:46:05;;;;;;;;;10.75;7.25;;;;;29.24;44.55;101130.28;5078215;27;45659;-79
2023/09/06 10:48:30;;;;;;;;;7.00;7.00;;;;;29.30;44.60;101136.91;5070020;27;45478;-78
2023/09/06 10:51:12;;;;;;;;;34.50;26.50;;;;;29.36;43.96;101139.00;5071551;27;73252;-78
2023/09/06 10:53:38;;;;;;;;;12.50;9.75;;;;;29.42;44.19;101130.28;5060073;28;47273;-80
2023/09/06 10:56:05;;;;;;;;;31.50;23.50;;;;;29.46;44.03;101133.50;5074365;28;45514;-77
2023/09/06 10:58:33;;;;;;;;;14.25;12.75;;;;;29.48;43.68;101118.88;5069515;27;45343;-76
2023/09/06 11:01:17;;;;;;;;;17.50;13.75;;;;;29.53;43.89;101124.66;5069513;27;45426;-75
2023/09/06 11:03:48;;;;;;;;;12.00;9.00;;;;;29.56;43.78;101128.03;5080618;27;46016;-75
2023/09/06 11:06:16;;;;;;;;;12.00;8.75;;;;;29.59;43.69;101120.47;5073904;27;45596;-71
2023/09/06 11:08:42;;;;;;;;;9.25;9.25;;;;;29.66;43.74;101124.25;5077421;28;45288;-69
2023/09/06 11:11:09;;;;;;;;;52.00;40.00;;;;;29.70;43.67;101122.06;5063819;28;45709;-73
2023/09/06 11:13:39;;;;;;;;;5.00;3.00;;;;;29.69;43.63;101104.19;5077814;27;45772;-71
2023/09/06 11:16:11;;;;;;;;;37.50;30.75;;;;;29.77;43.01;101116.94;5079546;27;45505;-69